Windham, Connecticut
Current Conditions -  °F | °C
As of 2:52 AM on Tuesday 27 Jan 2015 (Local Time) from KIJD Reporting Station
Haze Haze  
Wind Chill: -17°   Ceiling: 600
Heat Index: -8°   Visibility: 0.5mi
Dew Point: -11°   Wind: 17mph
Humidity: 81%   Direction: 10°N
Pressure: 29.67"   Gusts: 25mph
Location:  41.7°N, 72.16°W
Report Text: KIJD 270752Z AUTO 01015G22KT 1/2SM HZ VV006 M08/M11 A2967 RMK AO2 SLP050 P0001 T10831111 PWINO FZRANO $
Loading
Personal Weather Stations






























Interactive Weather Map New forecast layout! Learn more

10-Day Weather Forecast

Advertisements
Track Severe Weather on mobile